Time;durP1;ratioP1;P1;durP2;ratioP2;P2;SDS_P1;SDS_P2;PMS_P1;PMS_P2;Temp;Humidity;BMP_temperature;BMP_pressure;BME280_temperature;BME280_humidity;BME280_pressure;Samples;Min_cycle;Max_cycle;Signal;HPM_P1;HPM_P2
2021/12/03 00:01:44;;;;;;;5.17;1.87;;;;;;;-3.24;100.00;97892.89;1732103;80;21009;-66
2021/12/03 00:04:11;;;;;;;3.58;1.67;;;;;;;-3.26;100.00;97899.73;1730689;80;21221;-66
2021/12/03 00:06:38;;;;;;;6.33;1.95;;;;;;;-3.28;100.00;97898.91;1730068;81;21001;-66
2021/12/03 00:09:07;;;;;;;3.05;2.15;;;;;;;-3.32;100.00;97908.80;1733459;81;21547;-67
2021/12/03 00:11:34;;;;;;;5.55;1.90;;;;;;;-3.34;100.00;97904.16;1729316;81;22361;-66
2021/12/03 00:14:02;;;;;;;4.87;1.40;;;;;;;-3.34;100.00;97905.43;1731870;81;21642;-66
2021/12/03 00:16:28;;;;;;;2.85;1.27;;;;;;;-3.38;100.00;97908.48;1713834;80;21590;-66
2021/12/03 00:18:56;;;;;;;3.25;1.37;;;;;;;-3.41;100.00;97909.39;1715737;82;21560;-66
2021/12/03 00:21:25;;;;;;;3.35;1.30;;;;;;;-3.44;100.00;97903.08;1710535;82;21060;-66
2021/12/03 00:23:51;;;;;;;3.75;1.42;;;;;;;-3.46;100.00;97913.73;1708522;82;21087;-66
2021/12/03 00:26:18;;;;;;;6.97;1.90;;;;;;;-3.49;100.00;97924.01;1718987;82;21020;-66
2021/12/03 00:28:45;;;;;;;2.80;1.40;;;;;;;-3.52;100.00;97926.63;1709105;82;22139;-66
2021/12/03 00:31:14;;;;;;;5.42;2.00;;;;;;;-3.54;100.00;97923.25;1720504;82;21048;-66
2021/12/03 00:33:41;;;;;;;2.42;1.10;;;;;;;-3.56;100.00;97928.81;1709455;82;20985;-67
2021/12/03 00:36:10;;;;;;;5.90;2.15;;;;;;;-3.58;100.00;97936.95;1715607;82;28177;-67
2021/12/03 00:38:45;;;;;;;2.95;1.65;;;;;;;-3.61;100.00;97931.91;1714762;82;21030;-67
2021/12/03 00:41:16;;;;;;;3.05;1.40;;;;;;;-3.61;100.00;97937.02;1673610;83;21087;-66
2021/12/03 00:43:46;;;;;;;3.05;1.55;;;;;;;-3.63;100.00;97942.56;1704483;83;21028;-67
2021/12/03 00:46:16;;;;;;;2.55;1.15;;;;;;;-3.62;100.00;97945.52;1701554;83;21521;-66
2021/12/03 00:48:42;;;;;;;3.75;1.80;;;;;;;-3.58;100.00;97951.39;1701605;83;21550;-66
2021/12/03 00:51:10;;;;;;;4.62;1.67;;;;;;;-3.57;100.00;97948.83;1698419;82;20966;-66
2021/12/03 00:53:38;;;;;;;2.98;1.30;;;;;;;-3.55;100.00;97951.36;1693644;83;21064;-66
2021/12/03 00:56:09;;;;;;;4.45;1.32;;;;;;;-3.50;100.00;97952.95;1689967;83;20947;-66
2021/12/03 00:58:37;;;;;;;3.30;1.57;;;;;;;-3.49;100.00;97955.91;1711387;82;21044;-66
2021/12/03 01:01:06;;;;;;;3.52;1.50;;;;;;;-3.48;100.00;97953.74;1713530;82;23122;-67
2021/12/03 01:03:34;;;;;;;2.27;1.25;;;;;;;-3.46;100.00;97958.39;1713437;82;21056;-66
2021/12/03 01:06:02;;;;;;;4.30;1.47;;;;;;;-3.45;100.00;97961.77;1710164;82;21100;-66
2021/12/03 01:08:28;;;;;;;3.75;1.80;;;;;;;-3.47;100.00;97963.09;1715402;82;21326;-66
2021/12/03 01:10:55;;;;;;;4.27;1.47;;;;;;;-3.48;100.00;97963.95;1706883;82;20990;-66
2021/12/03 01:13:22;;;;;;;4.10;1.87;;;;;;;-3.49;100.00;97974.20;1669473;83;21052;-66
2021/12/03 01:15:49;;;;;;;2.87;1.42;;;;;;;-3.54;100.00;97975.55;1666318;84;21651;-66
2021/12/03 01:18:16;;;;;;;5.50;2.08;;;;;;;-3.58;100.00;97967.56;1676355;83;21931;-66
2021/12/03 01:20:45;;;;;;;2.12;1.45;;;;;;;-3.61;100.00;97976.55;1646622;85;28232;-66
2021/12/03 01:27:11;;;;;;;3.42;1.50;;;;;;;-3.67;100.00;97973.68;1714401;82;20969;-65
2021/12/03 01:29:38;;;;;;;4.07;1.67;;;;;;;-3.72;100.00;97972.08;1724019;82;21056;-65
2021/12/03 01:32:06;;;;;;;5.87;1.90;;;;;;;-3.77;100.00;97973.87;1720598;81;21422;-65
2021/12/03 01:34:33;;;;;;;3.45;1.95;;;;;;;-3.83;100.00;97975.66;1724520;82;20997;-65
2021/12/03 01:36:59;;;;;;;3.77;1.40;;;;;;;-3.88;100.00;97977.44;1717720;82;20993;-65
2021/12/03 01:39:26;;;;;;;3.45;2.00;;;;;;;-3.93;100.00;97975.39;1709811;82;20968;-65
2021/12/03 01:41:53;;;;;;;9.93;5.55;;;;;;;-3.98;100.00;97981.00;1713074;82;20985;-66
2021/12/03 01:44:20;;;;;;;5.58;1.92;;;;;;;-4.02;100.00;97987.03;1668731;83;21242;-65
2021/12/03 01:46:46;;;;;;;2.40;1.70;;;;;;;-4.07;100.00;97988.37;1676451;83;21072;-65
2021/12/03 01:49:14;;;;;;;4.15;2.80;;;;;;;-4.13;100.00;97986.36;1687973;83;21690;-66
2021/12/03 01:51:43;;;;;;;6.20;2.22;;;;;;;-4.20;100.00;97986.91;1700959;83;21080;-65
2021/12/03 01:54:10;;;;;;;4.92;1.60;;;;;;;-4.24;100.00;97989.52;1673626;83;21528;-66
2021/12/03 01:56:39;;;;;;;2.40;1.50;;;;;;;-4.28;100.00;97992.55;1682953;84;22359;-65
2021/12/03 01:59:07;;;;;;;3.22;1.22;;;;;;;-4.30;100.00;97989.18;1671969;84;21258;-65
2021/12/03 02:01:35;;;;;;;3.12;1.25;;;;;;;-4.32;100.00;97994.28;1647326;85;21005;-65
2021/12/03 02:04:04;;;;;;;4.12;1.50;;;;;;;-4.35;100.00;97989.67;1676533;83;21070;-65
2021/12/03 02:06:32;;;;;;;4.53;1.82;;;;;;;-4.37;100.00;97996.09;1670093;83;20930;-65
2021/12/03 02:09:00;;;;;;;2.77;1.70;;;;;;;-4.38;100.00;97998.20;1651439;85;22076;-65
2021/12/03 02:11:28;;;;;;;6.50;4.33;;;;;;;-4.38;100.00;97999.48;1653605;85;21021;-65
2021/12/03 02:13:57;;;;;;;3.27;2.10;;;;;;;-4.37;100.00;97999.91;1688686;83;21064;-65
2021/12/03 02:16:24;;;;;;;4.10;1.75;;;;;;;-4.40;100.00;98005.02;1673762;84;20961;-65
2021/12/03 02:18:51;;;;;;;4.65;1.75;;;;;;;-4.44;100.00;97997.03;1731774;81;20897;-65
2021/12/03 02:21:21;;;;;;;5.05;2.10;;;;;;;-4.47;100.00;97998.80;1712644;83;21559;-66
2021/12/03 02:23:49;;;;;;;4.97;1.92;;;;;;;-4.51;100.00;98003.94;1719540;82;21577;-66
2021/12/03 02:26:16;;;;;;;3.27;1.75;;;;;;;-4.55;100.00;98007.81;1713412;82;21013;-65
2021/12/03 02:28:48;;;;;;;4.70;1.87;;;;;;;-4.56;100.00;98013.78;1708836;82;21076;-65
2021/12/03 02:31:18;;;;;;;4.85;1.80;;;;;;;-4.56;100.00;98007.41;1712813;83;21041;-65
2021/12/03 02:33:45;;;;;;;4.33;2.40;;;;;;;-4.55;100.00;98003.98;1709560;83;21071;-65
2021/12/03 02:36:13;;;;;;;4.28;1.70;;;;;;;-4.54;100.00;98001.84;1709023;82;21138;-66
2021/12/03 02:38:41;;;;;;;3.92;1.92;;;;;;;-4.51;100.00;98008.16;1731608;81;21068;-65
2021/12/03 02:41:08;;;;;;;7.20;2.25;;;;;;;-4.46;100.00;98010.66;1690928;82;20958;-65
2021/12/03 02:43:35;;;;;;;3.00;1.70;;;;;;;-4.43;100.00;98002.52;1731764;81;21001;-66
2021/12/03 02:46:05;;;;;;;4.47;1.90;;;;;;;-4.38;100.00;98016.48;1716840;81;22289;-65
2021/12/03 02:48:35;;;;;;;4.95;1.70;;;;;;;-4.33;100.00;98007.91;1733816;81;20961;-66
2021/12/03 02:51:01;;;;;;;2.98;1.75;;;;;;;-4.28;100.00;98016.33;1708751;82;21045;-65
2021/12/03 02:53:28;;;;;;;;;;;;;;;-4.23;100.00;98014.96;1714559;82;20949;-65
2021/12/03 02:55:55;;;;;;;2.70;1.30;;;;;;;-4.22;100.00;98012.00;1713637;82;20183;-66
2021/12/03 02:58:22;;;;;;;4.80;2.05;;;;;;;-4.22;100.00;98017.11;1711736;82;21461;-65
2021/12/03 03:00:51;;;;;;;4.50;2.05;;;;;;;-4.19;100.00;98014.50;1703793;83;21030;-66
2021/12/03 03:03:18;;;;;;;3.02;1.35;;;;;;;-4.20;100.00;98010.25;1703660;83;20999;-65
2021/12/03 03:06:01;;;;;;;3.45;1.95;;;;;;;-4.20;100.00;98000.06;1705405;83;20976;-65
2021/12/03 03:08:30;;;;;;;4.28;1.27;;;;;;;-4.22;100.00;98001.81;1732584;81;21614;-65
2021/12/03 03:10:58;;;;;;;3.67;1.32;;;;;;;-4.27;100.00;98005.25;1732830;81;21125;-65
2021/12/03 03:13:25;;;;;;;6.87;1.72;;;;;;;-4.33;100.00;98007.91;1679611;83;20985;-66
2021/12/03 03:15:53;;;;;;;;;;;;;;;-4.40;100.00;98012.66;1699759;83;21160;-65
2021/12/03 03:18:24;;;;;;;2.65;1.05;;;;;;;-4.43;100.00;98016.53;1682938;83;20194;-66
2021/12/03 03:20:53;;;;;;;4.03;1.65;;;;;;;-4.43;100.00;98019.09;1709083;82;22301;-65
2021/12/03 03:23:20;;;;;;;3.33;1.35;;;;;;;-4.41;100.00;98012.27;1671295;82;21041;-65
2021/12/03 03:25:48;;;;;;;;;;;;;;;-4.37;100.00;98007.96;1705532;82;20985;-65
2021/12/03 03:28:16;;;;;;;4.67;1.75;;;;;;;-4.38;100.00;97999.48;1703938;82;20935;-65
2021/12/03 03:30:46;;;;;;;2.70;1.25;;;;;;;-4.38;100.00;98006.29;1705395;82;21023;-65
2021/12/03 03:33:15;;;;;;;1.77;1.07;;;;;;;-4.40;100.00;97996.11;1706734;82;20927;-66
2021/12/03 03:35:42;;;;;;;3.45;1.35;;;;;;;-4.41;100.00;97988.06;1701714;82;21063;-66
2021/12/03 03:38:13;;;;;;;3.20;1.20;;;;;;;-4.43;100.00;97993.61;1664049;84;21120;-65
2021/12/03 03:40:41;;;;;;;2.83;1.42;;;;;;;-4.44;100.00;97993.21;1666893;84;21033;-66
2021/12/03 03:43:09;;;;;;;5.22;1.80;;;;;;;-4.41;100.00;97996.98;1669442;84;20981;-66
2021/12/03 03:45:37;;;;;;;;;;;;;;;-4.42;100.00;97997.86;1679089;83;21558;-66
2021/12/03 03:48:05;;;;;;;4.15;1.95;;;;;;;-4.39;100.00;98000.36;1683316;83;21411;-65
2021/12/03 03:50:32;;;;;;;3.20;1.67;;;;;;;-4.39;100.00;97995.27;1672538;84;21048;-65
2021/12/03 03:53:00;;;;;;;2.77;1.40;;;;;;;-4.38;100.00;97989.29;1669678;84;21048;-65
2021/12/03 03:55:27;;;;;;;2.80;1.70;;;;;;;-4.35;100.00;97981.59;1674406;84;21001;-65
2021/12/03 03:57:58;;;;;;;4.35;1.70;;;;;;;-4.30;100.00;97984.09;1680961;84;25714;-65
2021/12/03 04:00:36;;;;;;;6.83;1.82;;;;;;;-4.23;100.00;97983.55;1710737;82;21064;-66
2021/12/03 04:03:04;;;;;;;4.75;1.77;;;;;;;-4.12;100.00;97988.87;1710849;82;21496;-65
2021/12/03 04:05:31;;;;;;;3.52;1.90;;;;;;;-4.00;100.00;97990.41;1724595;82;21000;-66
2021/12/03 04:07:58;;;;;;;2.95;1.45;;;;;;;-3.91;100.00;97985.14;1708767;82;21759;-65
2021/12/03 04:10:27;;;;;;;4.03;2.40;;;;;;;-3.85;100.00;97982.48;1710626;82;20945;-65
2021/12/03 04:12:55;;;;;;;3.05;2.20;;;;;;;-3.77;100.00;97980.24;1713838;82;21901;-66
2021/12/03 04:15:22;;;;;;;5.25;1.80;;;;;;;-3.70;100.00;97974.15;1695356;82;20990;-65
2021/12/03 04:17:58;;;;;;;5.05;2.05;;;;;;;-3.64;100.00;97975.30;1695679;83;20953;-66
2021/12/03 04:20:24;;;;;;;4.47;1.70;;;;;;;-3.59;100.00;97970.96;1659479;83;21107;-65
2021/12/03 04:22:52;;;;;;;5.55;2.50;;;;;;;-3.52;100.00;97962.34;1709191;82;21132;-65
2021/12/03 04:25:22;;;;;;;11.38;3.20;;;;;;;-3.48;100.00;97958.84;1666116;83;21221;-66
2021/12/03 04:27:53;;;;;;;2.70;1.75;;;;;;;-3.42;100.00;97953.66;1697389;82;21670;-65
2021/12/03 04:30:26;;;;;;;5.42;2.42;;;;;;;-3.38;100.00;97952.70;1659015;83;21021;-67
2021/12/03 04:33:06;;;;;;;4.12;2.37;;;;;;;-3.34;100.00;97952.64;1668471;84;21009;-66
2021/12/03 04:38:28;;;;;;;3.92;2.72;;;;;;;-3.25;100.00;97940.97;1645536;82;20935;-65
2021/12/03 04:41:03;;;;;;;3.15;1.80;;;;;;;-3.21;100.00;97938.77;1694179;82;20970;-66
2021/12/03 04:43:40;;;;;;;6.62;2.22;;;;;;;-3.14;100.00;97935.20;1635543;86;21660;-65
2021/12/03 04:46:10;;;;;;;4.37;2.33;;;;;;;-3.10;100.00;97939.39;1635250;86;20953;-65
2021/12/03 04:52:00;;;;;;;;;;;;;;;;;;;;;
2021/12/03 04:58:03;;;;;;;6.12;2.25;;;;;;;-2.89;100.00;97921.91;1600670;87;21018;-66
2021/12/03 05:00:38;;;;;;;5.65;3.80;;;;;;;-2.79;100.00;97919.56;1619218;87;21216;-64
2021/12/03 05:03:05;;;;;;;4.05;2.02;;;;;;;-2.73;100.00;97925.81;1618952;86;21144;-66
2021/12/03 05:05:51;;;;;;;2.80;1.87;;;;;;;-2.68;100.00;97929.55;1612366;86;21588;-66
2021/12/03 05:11:17;;;;;;;7.85;2.60;;;;;;;-2.60;100.00;97927.22;1605797;86;21108;-66
2021/12/03 05:14:00;;;;;;;3.40;2.05;;;;;;;-2.56;100.00;97932.64;1596600;88;21138;-66
2021/12/03 05:19:29;;;;;;;2.80;1.40;;;;;;;-2.50;100.00;97929.94;1604977;87;21061;-66
2021/12/03 05:22:26;;;;;;;;;;;;;;;;;;;;;
2021/12/03 05:24:58;;;;;;;6.08;1.90;;;;;;;-2.42;100.00;97928.94;1604559;87;21126;-66
2021/12/03 05:28:06;;;;;;;3.17;1.95;;;;;;;-2.40;100.00;97931.02;1601642;87;21179;-67
2021/12/03 05:30:38;;;;;;;6.50;3.52;;;;;;;-2.37;100.00;97938.62;1590155;89;21114;-66
2021/12/03 05:33:21;;;;;;;6.75;3.22;;;;;;;-2.35;100.00;97934.28;1593348;88;21053;-66
2021/12/03 05:36:01;;;;;;;4.95;3.22;;;;;;;-2.32;100.00;97921.45;1607056;89;21911;-67
2021/12/03 05:38:40;;;;;;;6.25;2.70;;;;;;;-2.30;100.00;97926.07;1605373;87;21390;-66
2021/12/03 05:41:24;;;;;;;4.15;2.77;;;;;;;-2.29;100.00;97926.49;1628421;86;21207;-66
2021/12/03 05:43:52;;;;;;;8.53;4.15;;;;;;;-2.28;100.00;97920.49;1653545;84;21024;-66
2021/12/03 05:46:19;;;;;;;6.37;2.65;;;;;;;-2.27;100.00;97927.27;1660748;86;21092;-66
2021/12/03 05:48:46;;;;;;;3.15;2.37;;;;;;;-2.27;100.00;97931.11;1657424;86;20976;-67
2021/12/03 05:51:13;;;;;;;5.83;2.10;;;;;;;-2.27;100.00;97930.70;1670777;81;21016;-67
2021/12/03 05:53:40;;;;;;;3.60;2.50;;;;;;;-2.26;100.00;97917.47;1762881;80;21009;-67
2021/12/03 05:56:07;;;;;;;3.72;1.92;;;;;;;-2.24;100.00;97922.11;1775527;79;21028;-67
2021/12/03 05:58:33;;;;;;;2.52;1.50;;;;;;;-2.20;100.00;97919.87;1773578;79;21151;-67
2021/12/03 06:01:00;;;;;;;4.10;2.33;;;;;;;-2.19;100.00;97922.81;1774322;79;21001;-66
2021/12/03 06:03:27;;;;;;;4.40;2.47;;;;;;;-2.19;100.00;97922.81;1773877;79;21346;-66
2021/12/03 06:05:54;;;;;;;3.95;2.08;;;;;;;-2.17;100.00;97922.34;1776142;79;21064;-66
2021/12/03 06:08:22;;;;;;;3.80;1.67;;;;;;;-2.14;100.00;97923.55;1776132;79;20994;-66
2021/12/03 06:10:49;;;;;;;3.77;2.00;;;;;;;-2.13;100.00;97925.23;1773241;79;21213;-67
2021/12/03 06:13:16;;;;;;;4.70;2.27;;;;;;;-2.13;100.00;97917.98;1774594;80;21575;-67
2021/12/03 06:15:43;;;;;;;5.07;2.73;;;;;;;-2.12;100.00;97917.12;1773343;79;20965;-68
2021/12/03 06:18:10;;;;;;;7.90;2.90;;;;;;;-2.14;100.00;97912.03;1775852;79;21140;-67
2021/12/03 06:20:39;;;;;;;6.47;2.58;;;;;;;-2.14;100.00;97915.88;1772530;79;21009;-67
2021/12/03 06:23:07;;;;;;;5.78;3.15;;;;;;;-2.12;100.00;97915.41;1772976;79;21037;-66
2021/12/03 06:25:34;;;;;;;9.48;3.55;;;;;;;-2.13;100.00;97904.78;1750718;80;20993;-66
2021/12/03 06:28:00;;;;;;;6.77;3.20;;;;;;;-2.12;100.00;97906.45;1762733;79;20902;-67
2021/12/03 06:30:28;;;;;;;4.25;2.67;;;;;;;-2.10;100.00;97906.39;1776123;79;20926;-67
2021/12/03 06:33:03;;;;;;;5.12;3.10;;;;;;;-2.07;100.00;97911.46;1773843;79;21472;-66
2021/12/03 06:35:30;;;;;;;9.08;3.77;;;;;;;-2.07;100.00;97912.30;1773929;79;21321;-66
2021/12/03 06:37:59;;;;;;;4.60;3.12;;;;;;;-2.07;100.00;97904.63;1778333;79;20903;-66
2021/12/03 06:40:27;;;;;;;4.95;2.90;;;;;;;-2.05;100.00;97902.84;1775447;78;20962;-66
2021/12/03 06:42:54;;;;;;;4.53;2.45;;;;;;;-2.04;100.00;97907.09;1776710;79;21072;-66
2021/12/03 06:45:22;;;;;;;3.77;2.98;;;;;;;-2.00;100.00;97907.02;1773394;79;20933;-66
2021/12/03 06:47:50;;;;;;;4.15;2.50;;;;;;;-1.97;100.00;97917.16;1775332;79;21469;-66
2021/12/03 06:50:18;;;;;;;3.58;2.20;;;;;;;-1.92;100.00;97925.12;1774160;79;21856;-65
2021/12/03 06:53:01;;;;;;;4.15;3.02;;;;;;;-1.88;100.00;97920.75;1771892;79;21052;-66
2021/12/03 06:55:22;;;;;;;2.42;2.10;;;;;;;-1.82;100.00;97916.75;1762054;78;20982;-67
2021/12/03 06:57:49;;;;;;;1.82;1.27;;;;;;;-1.77;100.00;97918.75;1765125;79;21049;-66
2021/12/03 07:00:17;;;;;;;3.00;1.67;;;;;;;-1.73;100.00;97926.77;1762450;79;23213;-66
2021/12/03 07:02:44;;;;;;;2.58;1.57;;;;;;;-1.69;100.00;97920.67;1763008;79;21567;-67
2021/12/03 07:05:13;;;;;;;3.77;1.70;;;;;;;-1.66;100.00;97926.98;1761371;80;21063;-67
2021/12/03 07:07:41;;;;;;;1.65;1.25;;;;;;;-1.65;100.00;97922.73;1760817;79;22205;-67
2021/12/03 07:10:11;;;;;;;2.70;1.80;;;;;;;-1.61;100.00;97924.31;1727800;80;21034;-67
2021/12/03 07:12:40;;;;;;;2.35;1.80;;;;;;;-1.61;100.00;97926.42;1754423;80;21126;-66
2021/12/03 07:15:09;;;;;;;2.40;1.57;;;;;;;-1.59;100.00;97924.67;1754646;79;21502;-66
2021/12/03 07:17:35;;;;;;;2.62;1.55;;;;;;;-1.59;100.00;97922.11;1771927;79;21050;-66
2021/12/03 07:20:03;;;;;;;3.35;1.62;;;;;;;-1.58;100.00;97928.90;1729981;80;21002;-66
2021/12/03 07:22:30;;;;;;;2.67;1.62;;;;;;;-1.58;100.00;97931.45;1730434;81;21088;-66
2021/12/03 07:24:57;;;;;;;2.47;1.60;;;;;;;-1.57;100.00;97928.45;1730392;82;21286;-67
2021/12/03 07:27:25;;;;;;;5.72;3.50;;;;;;;-1.54;100.00;97931.38;1737173;80;21541;-67
2021/12/03 07:30:03;;;;;;;3.27;1.87;;;;;;;-1.50;100.00;97929.98;1733227;80;20900;-68
2021/12/03 07:32:33;;;;;;;3.22;2.02;;;;;;;-1.43;100.00;97938.31;1734610;80;21002;-68
2021/12/03 07:35:00;;;;;;;2.77;1.77;;;;;;;-1.40;100.00;97934.39;1734437;81;21132;-68
2021/12/03 07:37:27;;;;;;;2.42;1.40;;;;;;;-1.38;100.00;97937.75;1755344;79;21124;-67
2021/12/03 07:39:54;;;;;;;1.55;1.10;;;;;;;-1.36;100.00;97936.00;1725255;81;20982;-67
2021/12/03 07:42:32;;;;;;;3.30;1.80;;;;;;;-1.32;100.00;97936.74;1719543;82;21065;-66
2021/12/03 07:45:00;;;;;;;2.22;1.27;;;;;;;-1.28;100.00;97934.06;1710351;82;21056;-67
2021/12/03 07:47:32;;;;;;;3.12;2.15;;;;;;;-1.24;100.00;97953.56;1713763;81;21613;-67
2021/12/03 07:49:59;;;;;;;1.98;1.52;;;;;;;-1.18;100.00;97944.42;1731599;80;21113;-67
2021/12/03 07:52:26;;;;;;;4.63;2.53;;;;;;;-1.11;100.00;97940.44;1772045;79;21057;-67
2021/12/03 07:54:53;;;;;;;3.75;2.65;;;;;;;-1.11;100.00;97951.95;1749541;79;20961;-67
2021/12/03 07:57:22;;;;;;;1.55;1.27;;;;;;;-1.10;100.00;97954.91;1734368;80;21626;-67
2021/12/03 07:59:51;;;;;;;3.10;1.72;;;;;;;-1.11;100.00;97963.48;1746791;81;21029;-67
2021/12/03 08:02:18;;;;;;;2.47;1.72;;;;;;;-1.09;100.00;97964.26;1748418;80;21613;-67
2021/12/03 08:04:45;;;;;;;1.92;1.47;;;;;;;-1.01;100.00;97971.28;1749589;79;20990;-67
2021/12/03 08:07:12;;;;;;;2.83;1.60;;;;;;;-0.92;100.00;97970.59;1736481;80;21454;-67
2021/12/03 08:09:39;;;;;;;4.12;2.47;;;;;;;-0.84;100.00;97967.81;1749076;80;28437;-67
2021/12/03 08:12:07;;;;;;;2.52;1.60;;;;;;;-0.78;100.00;97971.92;1719997;81;21006;-67
2021/12/03 08:14:34;;;;;;;2.90;1.82;;;;;;;-0.77;100.00;97964.17;1719284;82;21837;-66
2021/12/03 08:17:01;;;;;;;3.90;2.05;;;;;;;-0.75;100.00;97975.67;1772335;79;20926;-68
2021/12/03 08:19:28;;;;;;;2.42;1.62;;;;;;;-0.76;100.00;97970.12;1772407;79;21559;-67
2021/12/03 08:21:54;;;;;;;4.50;1.70;;;;;;;-0.75;100.00;97972.66;1773342;79;21038;-68
2021/12/03 08:24:21;;;;;;;2.85;1.40;;;;;;;-0.76;100.00;97981.22;1775873;79;20997;-67
2021/12/03 08:26:48;;;;;;;1.27;1.07;;;;;;;-0.73;100.00;97983.72;1771625;80;21059;-67
2021/12/03 08:29:15;;;;;;;1.82;1.25;;;;;;;-0.73;100.00;97983.72;1774210;79;21059;-68
2021/12/03 08:31:41;;;;;;;3.17;1.60;;;;;;;-0.72;100.00;97984.10;1747027;79;21072;-68
2021/12/03 08:34:08;;;;;;;3.17;1.40;;;;;;;-0.71;100.00;97984.48;1774166;79;21044;-68
2021/12/03 08:36:36;;;;;;;2.90;1.35;;;;;;;-0.72;100.00;97994.35;1769707;79;21060;-68
2021/12/03 08:39:05;;;;;;;3.95;1.45;;;;;;;-0.77;100.00;97998.77;1753143;79;26594;-67
2021/12/03 08:41:35;;;;;;;2.35;1.80;;;;;;;-0.76;100.00;98001.72;1735461;80;21006;-67
2021/12/03 08:44:05;;;;;;;3.95;1.45;;;;;;;-0.68;100.00;97997.20;1736521;80;21614;-66
2021/12/03 08:46:35;;;;;;;1.42;1.20;;;;;;;-0.55;100.00;97996.86;1740446;81;21021;-66
2021/12/03 08:49:47;;;;;;;1.95;1.27;;;;;;;-0.45;100.00;97993.11;1740687;80;21052;-67
2021/12/03 08:56:51;;;;;;;3.87;1.20;;;;;;;-0.21;100.00;98000.95;1654660;85;21087;-66
2021/12/03 08:59:19;;;;;;;1.60;1.17;;;;;;;0.05;100.00;98007.36;1655036;85;21584;-66
2021/12/03 09:01:46;;;;;;;2.72;1.35;;;;;;;0.07;100.00;98014.58;1647308;85;21106;-66
2021/12/03 09:04:14;;;;;;;3.30;1.72;;;;;;;0.05;100.00;98016.34;1662032;85;21129;-67
2021/12/03 09:06:41;;;;;;;2.17;1.42;;;;;;;0.05;100.00;98026.61;1647288;85;20980;-66
2021/12/03 09:09:08;;;;;;;2.17;1.40;;;;;;;0.07;100.00;98019.70;1651219;84;21136;-67
2021/12/03 09:11:37;;;;;;;2.20;1.17;;;;;;;0.00;100.00;98015.68;1648301;85;21104;-67
2021/12/03 09:14:13;;;;;;;2.08;1.32;;;;;;;-0.06;100.00;98014.56;1641345;85;21055;-67
2021/12/03 09:16:34;;;;;;;6.30;2.40;;;;;;;-0.06;100.00;98018.41;1676783;83;22121;-66
2021/12/03 09:19:03;;;;;;;5.40;2.50;;;;;;;0.02;100.00;98024.14;1665813;85;21168;-67
2021/12/03 09:21:34;;;;;;;3.55;1.60;;;;;;;0.28;100.00;98032.73;1668530;84;20905;-67
2021/12/03 09:24:08;;;;;;;2.12;1.40;;;;;;;0.57;100.00;98027.47;1648173;85;20952;-66
2021/12/03 09:26:33;;;;;;;2.77;1.40;;;;;;;0.76;100.00;98026.85;1677371;84;21054;-66
2021/12/03 09:29:03;;;;;;;4.45;2.00;;;;;;;0.86;100.00;98033.33;1705739;81;22045;-66
2021/12/03 09:31:29;;;;;;;5.67;2.22;;;;;;;1.01;100.00;98037.94;1708576;82;21033;-66
2021/12/03 09:33:57;;;;;;;3.37;1.90;;;;;;;1.19;100.00;98036.43;1742745;80;20998;-66
2021/12/03 09:36:24;;;;;;;2.33;1.72;;;;;;;1.24;100.00;98041.41;1737802;81;22261;-66
2021/12/03 09:38:51;;;;;;;2.50;1.52;;;;;;;1.14;100.00;98045.20;1752755;80;21480;-66
2021/12/03 09:41:21;;;;;;;1.80;1.32;;;;;;;0.99;100.00;98042.29;1714081;81;21918;-65
2021/12/03 09:43:52;;;;;;;3.50;2.02;;;;;;;0.87;100.00;98042.73;1710855;82;21293;-66
2021/12/03 09:46:24;;;;;;;3.05;1.98;;;;;;;0.79;100.00;98037.02;1739580;81;20959;-66
2021/12/03 09:51:58;;;;;;;5.45;2.27;;;;;;;0.57;100.00;98053.16;1738714;80;20991;-66
2021/12/03 09:54:27;;;;;;;7.22;3.12;;;;;;;0.49;100.00;98047.43;1729638;80;22329;-67
2021/12/03 09:56:59;;;;;;;6.85;3.95;;;;;;;0.41;100.00;98058.40;1731744;80;21003;-65
2021/12/03 09:59:52;;;;;;;5.62;3.67;;;;;;;0.39;100.00;98057.60;1729464;81;21562;-65
2021/12/03 10:02:20;;;;;;;9.15;4.42;;;;;;;0.39;100.00;98054.61;1727621;80;21550;-66
2021/12/03 10:10:29;;;;;;;5.45;3.00;;;;;;;0.72;100.00;98063.80;1729355;81;20971;-66
2021/12/03 10:12:51;;;;;;;6.35;2.67;;;;;;;0.62;100.00;98066.69;1704687;82;20936;-66
2021/12/03 10:15:32;;;;;;;4.27;2.40;;;;;;;0.55;100.00;98072.07;1729537;80;21545;-66
2021/12/03 10:18:19;;;;;;;5.42;2.42;;;;;;;0.54;100.00;98066.10;1731112;80;20943;-66
2021/12/03 10:21:04;;;;;;;3.52;2.50;;;;;;;0.71;100.00;98067.27;1731776;81;21028;-65
2021/12/03 10:26:36;;;;;;;7.30;4.30;;;;;;;0.97;100.00;98074.91;1733045;81;21462;-66
2021/12/03 10:39:35;;;;;;;5.10;3.00;;;;;;;1.05;100.00;98072.91;1669829;83;21545;-65
2021/12/03 10:50:28;;;;;;;6.05;2.58;;;;;;;1.16;100.00;98070.41;1657631;84;21547;-66
2021/12/03 11:15:37;;;;;;;6.42;2.80;;;;;;;1.95;100.00;98086.73;1766811;79;20942;-66
2021/12/03 11:34:25;;;;;;;7.80;2.58;;;;;;;2.60;100.00;98102.21;1721459;81;20883;-66
2021/12/03 11:56:16;;;;;;;3.87;2.02;;;;;;;1.25;100.00;98128.77;1662658;83;21650;-66
2021/12/03 12:03:37;;;;;;;6.53;1.67;;;;;;;1.24;100.00;98139.12;1673970;83;20992;-66
2021/12/03 12:07:01;;;;;;;4.17;2.15;;;;;;;1.21;100.00;98140.06;1669589;83;20992;-66
2021/12/03 12:11:31;;;;;;;4.58;2.00;;;;;;;1.38;100.00;98153.61;1678750;83;21204;-67
2021/12/03 12:16:43;;;;;;;7.33;3.35;;;;;;;1.56;100.00;98150.82;1672015;83;21166;-66
2021/12/03 12:28:29;;;;;;;6.40;3.58;;;;;;;2.17;100.00;98161.88;1661110;84;21018;-66
2021/12/03 12:36:44;;;;;;;5.17;3.08;;;;;;;1.98;100.00;98150.97;1639182;85;21769;-67
2021/12/03 13:04:41;;;;;;;14.03;3.90;;;;;;;1.70;100.00;98186.34;1687861;83;21042;-67
2021/12/03 13:31:48;;;;;;;8.15;3.62;;;;;;;1.23;100.00;98220.98;1594306;88;21117;-67
2021/12/03 13:46:00;;;;;;;6.83;3.20;;;;;;;0.88;100.00;98235.84;1594116;87;21145;-68
2021/12/03 14:39:58;;;;;;;6.05;2.70;;;;;;;-0.10;100.00;98267.83;1610885;87;21215;-68
2021/12/03 14:42:34;;;;;;;4.30;2.52;;;;;;;-0.11;100.00;98269.14;1626164;86;21313;-68
2021/12/03 14:50:37;;;;;;;3.70;2.60;;;;;;;-0.13;100.00;98276.06;1605411;87;21047;-68
2021/12/03 14:55:57;;;;;;;4.97;3.20;;;;;;;-0.14;100.00;98294.88;1600127;87;21135;-68
2021/12/03 14:58:27;;;;;;;4.08;3.52;;;;;;;-0.15;100.00;98295.77;1601213;87;21129;-68
2021/12/03 15:00:58;;;;;;;5.35;2.92;;;;;;;-0.17;100.00;98297.53;1602332;87;21085;-68
2021/12/03 15:03:39;;;;;;;4.92;2.12;;;;;;;-0.19;100.00;98294.19;1602233;86;21005;-69
2021/12/03 15:08:52;;;;;;;3.08;2.42;;;;;;;-0.19;100.00;98298.03;1602723;87;21212;-69
2021/12/03 15:35:18;;;;;;;3.10;1.95;;;;;;;-0.19;100.00;98310.86;1597549;87;22125;-69
2021/12/03 16:05:12;;;;;;;3.45;3.15;;;;;;;-0.17;100.00;98320.62;1592547;88;21110;-69
2021/12/03 16:10:21;;;;;;;3.10;1.80;;;;;;;-0.13;100.00;98322.23;1595440;88;21122;-68
2021/12/03 16:22:50;;;;;;;4.92;2.70;;;;;;;-0.14;100.00;98328.23;1590606;87;21788;-71
2021/12/03 16:25:26;;;;;;;3.95;2.83;;;;;;;-0.13;100.00;98322.23;1604463;87;21630;-71
2021/12/03 16:43:32;;;;;;;4.08;2.58;;;;;;;-0.13;100.00;98322.23;1599374;87;21262;-71
2021/12/03 16:45:03;;;;;;;6.55;3.70;;;;;;;-0.09;100.00;98318.69;1585729;88;21161;-72
2021/12/03 16:47:31;;;;;;;4.95;4.28;;;;;;;-0.11;100.00;98317.88;1596541;88;21101;-72
2021/12/03 16:52:33;;;;;;;3.35;3.00;;;;;;;-0.16;100.00;98324.89;1596541;88;21643;-72
2021/12/03 16:55:03;;;;;;;3.27;2.98;;;;;;;-0.15;100.00;98332.53;1610767;88;22459;-72
2021/12/03 16:57:35;;;;;;;3.52;2.92;;;;;;;-0.14;100.00;98328.23;1594395;88;21242;-73
2021/12/03 17:00:20;;;;;;;4.50;3.40;;;;;;;-0.14;100.00;98330.80;1595308;88;21018;-71
2021/12/03 17:02:51;;;;;;;4.83;3.33;;;;;;;-0.12;100.00;98329.04;1597436;88;21140;-71
2021/12/03 17:10:29;;;;;;;3.87;2.60;;;;;;;-0.15;100.00;98326.56;1599120;87;21092;-71
2021/12/03 17:12:59;;;;;;;4.17;2.90;;;;;;;-0.14;100.00;98321.81;1619851;87;21017;-71
2021/12/03 17:15:44;;;;;;;6.08;3.90;;;;;;;-0.14;100.00;98315.41;1614861;87;21534;-72
2021/12/03 17:18:55;;;;;;;6.37;4.20;;;;;;;-0.11;100.00;98320.45;1567386;89;21065;-71
2021/12/03 17:27:58;;;;;;;;;;;;;;;;;;;;;
2021/12/03 17:47:49;;;;;;;8.30;5.17;;;;;;;-0.09;100.00;98322.55;1627095;87;21466;-69
2021/12/03 17:50:38;;;;;;;8.30;6.08;;;;;;;-0.06;100.00;98324.58;1626397;87;22416;-70
2021/12/03 17:58:23;;;;;;;21.90;10.25;;;;;;;-0.05;100.00;98325.44;1623066;87;21191;-70
2021/12/03 18:00:52;;;;;;;13.93;8.13;;;;;;;-0.07;100.00;98316.94;1634205;86;22159;-71
2021/12/03 18:03:28;;;;;;;19.55;8.33;;;;;;;-0.09;100.00;98316.13;1607307;87;21753;-71